createdAt,value
2017-09-06T00:01:01.230Z,70.90
2017-09-06T00:05:58.354Z,70.90
2017-09-06T00:08:25.869Z,71.10
2017-09-06T00:10:53.392Z,71.10
2017-09-06T00:13:20.896Z,71.20
2017-09-06T00:15:48.415Z,71.20
2017-09-06T00:18:15.906Z,71.10
2017-09-06T00:20:43.419Z,71.20
2017-09-06T00:23:12.047Z,71.10
2017-09-06T00:25:39.558Z,71.20
2017-09-06T00:28:07.064Z,71.10
2017-09-06T00:30:35.360Z,71.10
2017-09-06T00:33:02.863Z,71.00
2017-09-06T00:35:30.359Z,71.10
2017-09-06T00:37:58.259Z,71.00
2017-09-06T00:40:25.760Z,71.00
2017-09-06T00:42:53.263Z,70.90
2017-09-06T00:45:20.760Z,71.00
2017-09-06T00:47:48.251Z,71.00
2017-09-06T00:50:16.886Z,70.90
2017-09-06T00:52:44.799Z,70.50
2017-09-06T00:55:13.067Z,70.40
2017-09-06T00:57:40.995Z,70.20
2017-09-06T01:00:08.491Z,70.30
2017-09-06T01:02:36.019Z,70.40
2017-09-06T01:05:03.917Z,70.30
2017-09-06T01:07:31.439Z,70.30
2017-09-06T01:10:00.436Z,70.20
2017-09-06T01:12:27.931Z,70.40
2017-09-06T01:14:55.426Z,70.40
2017-09-06T01:17:22.924Z,70.50
2017-09-06T01:19:51.198Z,70.60
2017-09-06T01:22:19.463Z,70.50
2017-09-06T01:24:46.967Z,70.50
2017-09-06T01:27:14.463Z,70.40
2017-09-06T01:29:41.990Z,70.40
2017-09-06T01:32:10.257Z,70.60
2017-09-06T01:34:39.278Z,70.60
2017-09-06T01:37:07.904Z,70.40
2017-09-06T01:39:35.420Z,70.30
2017-09-06T01:42:02.919Z,70.40
2017-09-06T01:44:31.983Z,70.40
2017-09-06T01:46:59.474Z,70.40
2017-09-06T01:49:27.384Z,70.60
2017-09-06T01:51:55.731Z,70.60
2017-09-06T01:54:24.359Z,70.70
2017-09-06T01:56:51.869Z,70.90
2017-09-06T01:59:20.498Z,71.00
2017-09-06T02:01:48.014Z,71.10
2017-09-06T02:04:15.510Z,71.10
2017-09-06T02:06:43.033Z,71.10
2017-09-06T02:09:10.928Z,71.00
2017-09-06T02:11:39.211Z,70.90
2017-09-06T02:14:07.488Z,70.60
2017-09-06T02:16:35.394Z,70.30
2017-09-06T02:19:02.904Z,70.10
2017-09-06T02:21:30.428Z,70.40
2017-09-06T02:23:57.924Z,70.60
2017-09-06T02:26:26.195Z,70.80
2017-09-06T02:28:53.697Z,70.90
2017-09-06T02:31:21.208Z,70.70
2017-09-06T02:33:48.710Z,70.90
2017-09-06T02:36:16.218Z,70.90
2017-09-06T02:38:43.743Z,71.00
2017-09-06T02:41:11.638Z,71.00
2017-09-06T02:43:40.302Z,71.00
2017-09-06T02:46:07.802Z,70.90
2017-09-06T02:51:57.339Z,70.50
2017-09-06T02:54:24.861Z,70.80
2017-09-06T02:56:53.139Z,70.40
2017-09-06T02:59:21.428Z,70.60
2017-09-06T03:01:49.689Z,70.70
2017-09-06T03:04:17.979Z,70.70
2017-09-06T03:06:45.494Z,70.70
2017-09-06T03:09:13.024Z,70.80
2017-09-06T03:11:40.916Z,70.60
2017-09-06T03:14:08.443Z,70.50
2017-09-06T03:16:36.335Z,70.50
2017-09-06T03:21:33.483Z,70.90
2017-09-06T03:24:01.019Z,70.90
2017-09-06T03:26:29.647Z,71.20
2017-09-06T03:28:58.347Z,71.20
2017-09-06T03:31:26.243Z,71.20
2017-09-06T03:33:54.135Z,71.20
2017-09-06T03:36:22.419Z,71.40
2017-09-06T03:38:49.911Z,71.60
2017-09-06T03:41:17.423Z,71.80
2017-09-06T03:43:44.919Z,71.90
2017-09-06T03:46:12.448Z,72.20
2017-09-06T03:48:39.950Z,72.30
2017-09-06T03:51:08.241Z,72.40
2017-09-06T03:53:36.534Z,72.40
2017-09-06T03:56:04.442Z,72.30
2017-09-06T03:58:31.930Z,72.30
2017-09-06T04:00:59.448Z,72.20
2017-09-06T04:03:26.951Z,72.10
2017-09-06T04:05:54.469Z,72.10
2017-09-06T04:08:21.963Z,72.10
2017-09-06T04:10:49.455Z,72.00
2017-09-06T04:13:16.971Z,72.00
2017-09-06T04:15:44.864Z,72.00
2017-09-06T04:18:12.385Z,72.00
2017-09-06T04:20:39.963Z,72.00
2017-09-06T04:23:08.222Z,72.80
2017-09-06T04:25:35.711Z,72.50
2017-09-06T04:28:03.611Z,72.20
2017-09-06T04:30:31.882Z,72.20
2017-09-06T04:32:59.773Z,72.00
2017-09-06T04:37:56.884Z,71.80
2017-09-06T04:40:25.161Z,72.00
2017-09-06T04:42:52.655Z,71.90
2017-09-06T04:45:20.143Z,72.20
2017-09-06T04:47:50.341Z,72.10
2017-09-06T04:50:19.092Z,71.80
2017-09-06T04:52:46.682Z,71.90
2017-09-06T04:55:15.404Z,72.00
2017-09-06T04:57:42.915Z,72.30
2017-09-06T05:00:10.617Z,72.50
2017-09-06T05:05:07.732Z,72.70
2017-09-06T05:07:36.774Z,73.60
2017-09-06T05:10:05.407Z,72.90
2017-09-06T05:12:33.688Z,73.00
2017-09-06T05:15:01.187Z,73.10
2017-09-06T05:17:28.683Z,73.20
2017-09-06T05:19:56.948Z,73.00
2017-09-06T05:22:24.445Z,73.00
2017-09-06T05:24:51.941Z,72.90
2017-09-06T05:27:19.439Z,72.80
2017-09-06T05:32:16.547Z,72.20
2017-09-06T05:34:45.578Z,72.00
2017-09-06T05:37:13.075Z,72.00
2017-09-06T05:39:40.592Z,72.10
2017-09-06T05:42:08.105Z,72.00
2017-09-06T05:44:35.631Z,72.00
2017-09-06T05:47:03.127Z,72.00
2017-09-06T05:49:30.643Z,72.10
2017-09-06T05:54:27.063Z,72.20
2017-09-06T05:56:54.972Z,72.60
2017-09-06T05:59:22.614Z,72.20
2017-09-06T06:01:50.111Z,72.00
2017-09-06T06:04:17.730Z,72.10
2017-09-06T06:06:45.240Z,71.90
2017-09-06T06:09:13.504Z,71.70
2017-09-06T06:11:41.001Z,71.80
2017-09-06T06:14:09.271Z,72.00
2017-09-06T06:16:36.780Z,71.70
2017-09-06T06:19:05.045Z,71.70
2017-09-06T06:21:33.345Z,71.80
2017-09-06T06:24:01.235Z,71.70
2017-09-06T06:26:30.258Z,71.80
2017-09-06T06:31:27.732Z,71.90
2017-09-06T06:33:56.731Z,72.00
2017-09-06T06:36:25.731Z,71.80
2017-09-06T06:43:51.336Z,71.90
2017-09-06T06:46:18.845Z,71.80
2017-09-06T06:48:46.346Z,72.20
2017-09-06T06:51:14.249Z,72.30
2017-09-06T06:53:41.800Z,72.50
2017-09-06T06:56:09.309Z,72.80
2017-09-06T06:58:36.844Z,72.60
2017-09-06T07:01:04.436Z,72.70
2017-09-06T07:03:32.700Z,72.80
2017-09-06T07:06:00.608Z,72.70
2017-09-06T07:08:29.637Z,73.00
2017-09-06T07:10:58.339Z,73.00
2017-09-06T07:13:25.992Z,72.90
2017-09-06T07:15:54.634Z,73.30
2017-09-06T07:18:22.122Z,73.20
2017-09-06T07:20:49.623Z,73.10
2017-09-06T07:23:18.265Z,72.90
2017-09-06T07:25:46.952Z,73.00
2017-09-06T07:28:15.968Z,72.90
2017-09-06T07:30:44.734Z,73.20
2017-09-06T07:33:12.246Z,73.50
2017-09-06T07:35:40.907Z,73.80
2017-09-06T07:38:08.408Z,73.70
2017-09-06T07:40:35.971Z,73.70
2017-09-06T07:43:03.482Z,74.10
2017-09-06T07:45:31.015Z,74.20
2017-09-06T07:52:57.361Z,74.20
2017-09-06T07:55:26.415Z,73.90
2017-09-06T07:57:54.713Z,73.70
2017-09-06T08:00:22.775Z,73.30
2017-09-06T08:02:50.275Z,73.30
2017-09-06T08:05:17.780Z,73.10
2017-09-06T08:07:51.035Z,73.00
2017-09-06T08:10:20.277Z,73.10
2017-09-06T08:12:48.232Z,73.00
2017-09-06T08:15:15.891Z,73.30
2017-09-06T08:17:43.422Z,73.00
2017-09-06T08:20:10.929Z,72.90
2017-09-06T08:22:38.471Z,73.10
2017-09-06T08:25:06.366Z,73.00
2017-09-06T08:27:34.271Z,72.60
2017-09-06T08:30:01.775Z,72.70
2017-09-06T08:32:29.295Z,72.80
2017-09-06T08:34:57.585Z,72.80
2017-09-06T08:37:25.095Z,72.60
2017-09-06T08:39:52.990Z,72.50
2017-09-06T08:42:20.494Z,72.30
2017-09-06T08:44:49.103Z,72.30
2017-09-06T08:47:16.607Z,72.50
2017-09-06T08:49:44.168Z,72.60
2017-09-06T08:52:12.443Z,72.40
2017-09-06T08:54:40.715Z,72.40
2017-09-06T08:57:08.223Z,72.70
2017-09-06T08:59:35.807Z,72.90
2017-09-06T09:02:03.307Z,73.30
2017-09-06T09:04:31.202Z,73.80
2017-09-06T09:06:58.791Z,74.70
2017-09-06T09:09:26.291Z,75.40
2017-09-06T09:14:23.724Z,76.70
2017-09-06T09:16:51.243Z,76.60
2017-09-06T09:19:18.930Z,77.90
2017-09-06T09:21:46.568Z,78.30
2017-09-06T09:24:14.062Z,78.60
2017-09-06T09:26:41.579Z,78.50
2017-09-06T09:29:09.875Z,78.70
2017-09-06T09:31:37.398Z,78.70
2017-09-06T09:34:05.077Z,79.00
2017-09-06T09:36:32.616Z,80.00
2017-09-06T09:39:00.590Z,79.40
2017-09-06T09:41:29.680Z,78.40
2017-09-06T09:43:57.950Z,78.40
2017-09-06T09:46:26.241Z,78.70
2017-09-06T09:48:53.891Z,78.50
2017-09-06T09:51:21.554Z,78.30
2017-09-06T09:53:49.455Z,78.40
2017-09-06T09:56:17.080Z,78.40
2017-09-06T10:08:41.011Z,77.70
2017-09-06T10:11:08.511Z,77.50
2017-09-06T10:13:36.828Z,77.70
2017-09-06T10:16:04.719Z,77.50
2017-09-06T10:18:32.985Z,77.20
2017-09-06T10:21:00.615Z,77.70
2017-09-06T10:23:28.280Z,78.00
2017-09-06T10:25:55.932Z,77.90
2017-09-06T10:28:23.819Z,77.60
2017-09-06T10:30:51.318Z,77.50
2017-09-06T10:33:18.911Z,77.00
2017-09-06T10:35:46.443Z,76.80
2017-09-06T10:38:14.039Z,76.40
2017-09-06T10:40:41.559Z,76.40
2017-09-06T10:43:09.123Z,76.50
2017-09-06T10:45:37.218Z,76.40
2017-09-06T10:48:04.878Z,76.30
2017-09-06T10:50:33.168Z,76.40
2017-09-06T10:53:00.797Z,76.20
2017-09-06T10:55:28.474Z,76.40
2017-09-06T10:57:56.115Z,76.30
2017-09-06T11:00:23.616Z,76.40
2017-09-06T11:02:51.125Z,76.60
2017-09-06T11:05:18.634Z,76.50
2017-09-06T11:07:46.126Z,76.50
2017-09-06T11:10:13.788Z,76.50
2017-09-06T11:12:42.426Z,76.30
2017-09-06T11:15:10.747Z,76.40
2017-09-06T11:17:39.031Z,76.10
2017-09-06T11:20:06.532Z,75.90
2017-09-06T11:22:34.147Z,75.70
2017-09-06T11:25:01.661Z,76.00
2017-09-06T11:27:29.291Z,75.90
2017-09-06T11:29:57.315Z,75.80
2017-09-06T11:32:25.601Z,75.90
2017-09-06T11:34:53.249Z,76.00
2017-09-06T11:37:20.917Z,75.90
2017-09-06T11:42:18.305Z,75.40
2017-09-06T11:44:45.926Z,75.70
2017-09-06T11:47:14.203Z,75.90
2017-09-06T11:49:41.965Z,75.40
2017-09-06T11:52:09.853Z,75.40
2017-09-06T11:54:37.354Z,75.30
2017-09-06T11:57:06.081Z,74.80
2017-09-06T11:59:34.735Z,75.00
2017-09-06T12:02:02.267Z,75.00
2017-09-06T12:04:29.869Z,75.30
2017-09-06T12:06:58.150Z,75.30
2017-09-06T12:09:26.073Z,75.70
2017-09-06T12:11:54.730Z,74.70
2017-09-06T12:14:23.169Z,74.10
2017-09-06T12:16:51.499Z,73.30
2017-09-06T12:19:19.047Z,72.80
2017-09-06T12:24:16.179Z,72.80
2017-09-06T12:26:44.824Z,73.00
2017-09-06T12:29:13.134Z,72.80
2017-09-06T12:31:40.658Z,72.80
2017-09-06T12:34:08.627Z,72.70
2017-09-06T12:36:36.186Z,72.60
2017-09-06T12:39:04.081Z,72.70
2017-09-06T12:41:31.704Z,72.60
2017-09-06T12:43:59.970Z,73.20
2017-09-06T12:46:27.659Z,73.80
2017-09-06T12:48:55.296Z,73.90
2017-09-06T12:51:22.819Z,74.00
2017-09-06T12:53:50.424Z,74.10
2017-09-06T12:56:18.067Z,74.30
2017-09-06T12:58:45.735Z,74.20
2017-09-06T13:01:13.394Z,74.80
2017-09-06T13:03:41.043Z,74.90
2017-09-06T13:08:37.583Z,75.30
2017-09-06T13:11:05.848Z,75.50
2017-09-06T13:13:33.519Z,75.60
2017-09-06T13:16:01.181Z,75.60
2017-09-06T13:18:28.843Z,75.60
2017-09-06T13:20:56.335Z,75.40
2017-09-06T13:23:23.956Z,75.30
2017-09-06T13:25:52.024Z,75.10
2017-09-06T13:28:19.559Z,74.90
2017-09-06T13:30:47.449Z,75.10
2017-09-06T13:33:14.972Z,75.20
2017-09-06T13:35:42.872Z,75.00
2017-09-06T13:38:10.400Z,75.00
2017-09-06T13:40:39.941Z,75.10
2017-09-06T13:43:08.203Z,75.20
2017-09-06T13:45:35.764Z,75.20
2017-09-06T13:48:04.029Z,75.00
2017-09-06T13:50:31.524Z,74.90
2017-09-06T13:52:59.025Z,75.00
2017-09-06T13:55:26.580Z,74.30
2017-09-06T13:57:55.267Z,73.90
2017-09-06T14:00:22.816Z,73.20
2017-09-06T14:02:50.387Z,73.60
2017-09-06T14:05:18.050Z,74.10
2017-09-06T14:07:45.703Z,73.30
2017-09-06T14:10:13.624Z,73.00
2017-09-06T14:12:42.050Z,73.30
2017-09-06T14:15:10.143Z,73.30
2017-09-06T14:17:38.596Z,73.40
2017-09-06T14:20:06.196Z,73.40
2017-09-06T14:22:33.908Z,73.00
2017-09-06T14:25:02.916Z,73.10
2017-09-06T14:27:30.427Z,73.00
2017-09-06T14:29:58.858Z,73.10
2017-09-06T14:32:26.363Z,73.20
2017-09-06T14:34:53.860Z,73.30
2017-09-06T14:37:21.775Z,73.30
2017-09-06T14:39:49.291Z,73.30
2017-09-06T14:42:17.591Z,73.00
2017-09-06T14:44:46.228Z,73.20
2017-09-06T14:47:15.267Z,73.10
2017-09-06T14:49:43.907Z,72.80
2017-09-06T14:52:11.435Z,72.70
2017-09-06T14:54:38.940Z,71.90
2017-09-06T14:57:06.446Z,71.00
2017-09-06T14:59:33.943Z,71.50
2017-09-06T15:02:01.435Z,71.60
2017-09-06T15:04:29.840Z,71.20
2017-09-06T15:06:57.344Z,71.20
2017-09-06T15:09:24.880Z,71.00
2017-09-06T15:11:53.223Z,71.40
2017-09-06T15:14:20.736Z,71.10
2017-09-06T15:16:48.339Z,71.20
2017-09-06T15:19:16.626Z,71.40
2017-09-06T15:21:44.249Z,70.70
2017-09-06T15:24:11.776Z,70.70
2017-09-06T15:26:39.393Z,71.20
2017-09-06T15:29:07.675Z,70.60
2017-09-06T15:31:35.569Z,70.50
2017-09-06T15:34:03.176Z,70.30
2017-09-06T15:36:30.674Z,70.30
2017-09-06T15:38:58.188Z,70.70
2017-09-06T15:41:26.079Z,70.30
2017-09-06T15:43:53.607Z,70.40
2017-09-06T15:46:21.098Z,69.70
2017-09-06T15:48:48.715Z,69.60
2017-09-06T15:51:16.385Z,69.50
2017-09-06T15:53:43.888Z,69.50
2017-09-06T15:56:11.399Z,69.70
2017-09-06T15:58:38.902Z,69.30
2017-09-06T16:01:06.418Z,69.20
2017-09-06T16:06:02.952Z,69.40
2017-09-06T16:08:30.600Z,69.70
2017-09-06T16:10:58.112Z,69.60
2017-09-06T16:13:25.998Z,68.40
2017-09-06T16:15:55.034Z,68.80
2017-09-06T16:18:22.670Z,68.00
2017-09-06T16:20:50.345Z,68.50
2017-09-06T16:23:18.811Z,68.30
2017-09-06T16:25:46.314Z,68.00
2017-09-06T16:28:14.220Z,68.20
2017-09-06T16:30:41.889Z,68.20
2017-09-06T16:33:09.451Z,68.30
2017-09-06T16:35:38.139Z,68.30
2017-09-06T16:38:05.661Z,68.60
2017-09-06T16:40:34.083Z,68.80
2017-09-06T16:43:01.621Z,68.70
2017-09-06T16:45:29.120Z,68.60
2017-09-06T16:47:58.140Z,68.90
2017-09-06T16:55:24.117Z,68.70
2017-09-06T16:57:52.404Z,68.90
2017-09-06T17:00:20.038Z,69.00
2017-09-06T17:02:47.699Z,69.10
2017-09-06T17:05:15.592Z,69.00
2017-09-06T17:07:43.221Z,69.10
2017-09-06T17:10:10.878Z,69.20
2017-09-06T17:12:38.535Z,69.20
2017-09-06T17:15:06.802Z,69.30
2017-09-06T17:17:34.872Z,69.60
2017-09-06T17:20:02.399Z,69.70
2017-09-06T17:22:29.891Z,69.80
2017-09-06T17:24:57.420Z,69.70
2017-09-06T17:27:25.521Z,70.00
2017-09-06T17:29:53.051Z,70.20
2017-09-06T17:32:20.571Z,70.60
2017-09-06T17:34:48.296Z,70.80
2017-09-06T17:37:16.985Z,71.30
2017-09-06T17:39:44.512Z,71.70
2017-09-06T17:42:12.183Z,72.50
2017-09-06T17:44:40.555Z,73.40
2017-09-06T17:47:08.080Z,73.50
2017-09-06T17:49:35.687Z,73.90
2017-09-06T17:52:03.191Z,74.10
2017-09-06T17:54:30.791Z,74.40
2017-09-06T17:56:59.817Z,74.50
2017-09-06T17:59:27.343Z,74.30
2017-09-06T18:01:54.865Z,74.30
2017-09-06T18:04:23.686Z,74.30
2017-09-06T18:06:51.235Z,74.50
2017-09-06T18:09:18.759Z,74.60
2017-09-06T18:11:46.287Z,75.00
2017-09-06T18:14:14.685Z,75.20
2017-09-06T18:16:42.395Z,75.70
2017-09-06T18:19:10.664Z,75.80
2017-09-06T18:21:38.190Z,76.10
2017-09-06T18:24:05.748Z,76.00
2017-09-06T18:26:33.239Z,76.40
2017-09-06T18:29:00.793Z,76.70
2017-09-06T18:31:28.308Z,77.40
2017-09-06T18:33:55.819Z,77.40
2017-09-06T18:36:24.450Z,77.90
2017-09-06T18:38:52.352Z,78.30
2017-09-06T18:41:20.631Z,77.90
2017-09-06T18:43:48.266Z,78.20
2017-09-06T18:46:17.283Z,78.10
2017-09-06T18:48:45.629Z,78.20
2017-09-06T18:51:13.730Z,78.30
2017-09-06T18:53:41.398Z,78.40
2017-09-06T18:56:10.040Z,78.20
2017-09-06T18:58:37.954Z,78.50
2017-09-06T19:01:06.294Z,78.30
2017-09-06T19:03:33.832Z,78.40
2017-09-06T19:06:01.492Z,78.10
2017-09-06T19:08:30.284Z,77.90
2017-09-06T19:13:27.910Z,77.40
2017-09-06T19:18:24.447Z,76.40
2017-09-06T19:20:52.559Z,76.50
2017-09-06T19:23:20.215Z,75.50
2017-09-06T19:25:47.731Z,75.30
2017-09-06T19:28:16.388Z,75.30
2017-09-06T19:30:44.843Z,75.20
2017-09-06T19:33:12.599Z,75.30
2017-09-06T19:35:40.538Z,75.10
2017-09-06T19:38:08.051Z,74.50
2017-09-06T19:40:35.547Z,74.00
2017-09-06T19:43:04.199Z,73.90
2017-09-06T19:45:31.720Z,73.60
2017-09-06T19:48:00.011Z,72.50
2017-09-06T19:50:27.556Z,73.00
2017-09-06T19:52:55.079Z,72.80
2017-09-06T19:55:22.597Z,72.60
2017-09-06T19:57:52.033Z,72.30
2017-09-06T20:00:19.566Z,72.40
2017-09-06T20:02:47.287Z,72.30
2017-09-06T20:05:14.923Z,72.00
2017-09-06T20:07:42.498Z,72.60
2017-09-06T20:10:10.947Z,72.70
2017-09-06T20:12:38.476Z,72.40
2017-09-06T20:15:05.984Z,71.80
2017-09-06T20:17:33.571Z,71.30
2017-09-06T20:20:01.164Z,71.50
2017-09-06T20:22:28.896Z,71.10
2017-09-06T20:24:56.414Z,71.20
2017-09-06T20:27:23.954Z,71.60
2017-09-06T20:29:51.920Z,70.90
2017-09-06T20:32:19.637Z,71.00
2017-09-06T20:34:47.151Z,71.20
2017-09-06T20:37:14.671Z,71.10
2017-09-06T20:39:42.347Z,70.70
2017-09-06T20:42:10.003Z,71.00
2017-09-06T20:44:37.515Z,70.60
2017-09-06T20:47:05.015Z,70.50
2017-09-06T20:49:32.535Z,70.30
2017-09-06T20:52:00.033Z,70.00
2017-09-06T20:54:27.691Z,70.00
2017-09-06T20:59:24.248Z,69.90
2017-09-06T21:01:52.316Z,69.70
2017-09-06T21:04:20.986Z,69.50
2017-09-06T21:06:48.671Z,69.60
2017-09-06T21:09:16.304Z,69.80
2017-09-06T21:11:44.211Z,69.90
2017-09-06T21:14:12.850Z,69.90
2017-09-06T21:16:40.420Z,69.80
2017-09-06T21:19:07.910Z,69.80
2017-09-06T21:21:35.431Z,69.90
2017-09-06T21:24:03.093Z,70.10
2017-09-06T21:26:30.611Z,70.00
2017-09-06T21:28:59.427Z,70.00
2017-09-06T21:31:27.734Z,69.80
2017-09-06T21:33:55.639Z,69.80
2017-09-06T21:36:23.210Z,70.10
2017-09-06T21:38:50.863Z,70.10
2017-09-06T21:41:18.367Z,70.00
2017-09-06T21:43:46.391Z,69.80
2017-09-06T21:46:14.059Z,70.10
2017-09-06T21:48:41.987Z,70.30
2017-09-06T21:51:09.498Z,70.30
2017-09-06T21:53:37.039Z,70.30
2017-09-06T21:56:05.067Z,70.60
2017-09-06T21:58:32.601Z,70.60
2017-09-06T22:01:00.115Z,70.40
2017-09-06T22:03:27.663Z,70.60
2017-09-06T22:05:55.176Z,70.40
2017-09-06T22:08:22.692Z,70.40
2017-09-06T22:10:51.059Z,70.40
2017-09-06T22:13:19.334Z,70.40
2017-09-06T22:15:46.835Z,70.50
2017-09-06T22:18:14.430Z,70.60
2017-09-06T22:20:41.944Z,70.60
2017-09-06T22:23:10.592Z,70.80
2017-09-06T22:25:39.255Z,70.70
2017-09-06T22:28:06.771Z,70.40
2017-09-06T22:30:34.275Z,70.50
2017-09-06T22:33:01.781Z,70.50
2017-09-06T22:35:29.491Z,70.30
2017-09-06T22:37:57.148Z,70.20
2017-09-06T22:40:25.215Z,70.20
2017-09-06T22:42:52.875Z,70.30
2017-09-06T22:45:20.529Z,70.60
2017-09-06T22:47:48.199Z,70.50
2017-09-06T22:50:15.728Z,71.00
2017-09-06T22:52:43.234Z,71.00
2017-09-06T22:55:10.743Z,70.90
2017-09-06T22:57:38.635Z,71.00
2017-09-06T23:00:06.154Z,70.90
2017-09-06T23:02:34.541Z,71.40
2017-09-06T23:05:02.199Z,70.80
2017-09-06T23:07:29.703Z,70.70
2017-09-06T23:09:57.204Z,70.50
2017-09-06T23:12:25.181Z,70.40
2017-09-06T23:14:54.281Z,70.20
2017-09-06T23:17:22.555Z,70.10
2017-09-06T23:19:51.028Z,70.00
2017-09-06T23:22:18.523Z,70.00
2017-09-06T23:24:46.015Z,70.20
2017-09-06T23:27:14.423Z,70.20
2017-09-06T23:29:42.073Z,70.30
2017-09-06T23:32:10.342Z,70.10
2017-09-06T23:34:38.000Z,70.40
2017-09-06T23:37:06.695Z,70.30
2017-09-06T23:39:34.976Z,70.50
2017-09-06T23:42:04.071Z,70.60
2017-09-06T23:44:32.337Z,70.40
2017-09-06T23:47:00.243Z,70.30
2017-09-06T23:49:28.516Z,70.30
2017-09-06T23:51:56.006Z,70.20
2017-09-06T23:54:23.565Z,70.20
2017-09-06T23:56:52.043Z,70.20
2017-09-06T23:59:19.699Z,70.40
